KASH/ASH METAR and TAF weather

Enter ICAO airport designator
Station Type Date Time Source
KASH METAR 2019/04/21 21:56 UTC NOAA

KASH 212156Z VRB04KT 10SM SCT040 BKN065 BKN080 20/14 A3002 RMK AO2 SLP177 T02000144 $


Station Type Date Time Source
KASH Decoded METAR 2019/04/21 21:56 UTC NOAA

Nashua, Boire Field Airport, NH, United States (KASH) 42-46-54N 071-30-53W
Apr 21, 2019 - 05:56 PM EDT / 2019.04.21 2156 UTC
Wind: Variable at 5 MPH (4 KT):0
Visibility: 10 mile(s):0
Sky conditions: mostly cloudy
Temperature: 68.0 F (20.0 C)
Dew Point: 57.9 F (14.4 C)
Relative Humidity: 70%
Pressure (altimeter): 30.02 in. Hg (1016 hPa)
ob: KASH 212156Z VRB04KT 10SM SCT040 BKN065 BKN080 20/14 A3002 RMK AO2 SLP177 T02000144
cycle: 22

Station Type Date Time Source
KASH TAF UTC NOAA

Error!

Example: see airport list